Terminal Aerodrome Forecast
Issued by NWS Twin Cities, MN

Home | Current Version | Previous Version | Text Only | Print | Product List | Glossary On
Versions: 1 2 3 4 5 6 7 8 9 10 11 12 13 14 15
000
FTUS43 KMPX 162334
TAFSTC
TAF
KSTC 162334Z 1700/1724 16005KT P6SM SCT250
     FM170900 VRB03KT P6SM SCT030 SCT200
     FM171800 21005KT P6SM SCT150=

USA.gov is the U.S. government's official web portal to all federal, state and local government web resources and services.